createdAt,value
2018-07-17T00:01:37.911Z,25.50
2018-07-17T00:06:42.714Z,25.50
2018-07-17T00:11:47.523Z,25.50
2018-07-17T00:16:52.439Z,25.50
2018-07-17T00:21:57.358Z,25.40
2018-07-17T00:27:02.410Z,25.40
2018-07-17T00:32:07.211Z,25.30
2018-07-17T00:37:12.008Z,25.10
2018-07-17T00:42:16.806Z,24.50
2018-07-17T00:47:21.736Z,23.20
2018-07-17T00:52:26.532Z,23.20
2018-07-17T00:57:31.458Z,23.30
2018-07-17T01:02:41.175Z,22.30
2018-07-17T01:12:54.139Z,23.10
2018-07-17T01:17:58.944Z,23.50
2018-07-17T01:23:03.746Z,23.90
2018-07-17T01:28:08.673Z,24.30
2018-07-17T01:33:13.491Z,24.50
2018-07-17T01:38:18.156Z,24.50
2018-07-17T01:43:23.913Z,24.60
2018-07-17T01:48:29.315Z,24.70
2018-07-17T01:53:33.879Z,24.80
2018-07-17T01:58:38.683Z,24.80
2018-07-17T02:03:43.361Z,24.80
2018-07-17T02:08:59.920Z,24.80
2018-07-17T02:14:06.162Z,24.70
2018-07-17T02:19:10.847Z,24.70
2018-07-17T02:24:15.653Z,24.60
2018-07-17T02:29:20.460Z,24.30
2018-07-17T02:34:25.012Z,23.90
2018-07-17T02:39:29.939Z,24.00
2018-07-17T02:44:34.617Z,24.00
2018-07-17T02:49:39.418Z,24.20
2018-07-17T02:54:44.100Z,24.00
2018-07-17T02:59:48.911Z,23.90
2018-07-17T03:04:53.583Z,23.80
2018-07-17T03:09:59.229Z,23.50
2018-07-17T03:15:03.909Z,22.40
2018-07-17T03:20:08.590Z,21.70
2018-07-17T03:25:13.274Z,21.30
2018-07-17T03:30:18.683Z,21.80
2018-07-17T03:35:23.236Z,22.40
2018-07-17T03:40:28.278Z,22.80
2018-07-17T03:45:32.960Z,22.30
2018-07-17T03:50:37.642Z,21.90
2018-07-17T03:55:42.445Z,21.50
2018-07-17T04:00:47.127Z,21.10
2018-07-17T04:05:58.606Z,20.70
2018-07-17T04:11:05.738Z,20.90
2018-07-17T04:16:10.413Z,20.40
2018-07-17T04:21:15.102Z,21.10
2018-07-17T04:26:19.777Z,21.00
2018-07-17T04:31:24.578Z,20.90
2018-07-17T04:41:34.305Z,20.90
2018-07-17T04:46:55.295Z,20.20
2018-07-17T04:52:03.831Z,19.90
2018-07-17T04:57:08.870Z,19.70
2018-07-17T05:02:17.757Z,19.30
2018-07-17T05:07:23.036Z,19.90
2018-07-17T05:12:27.733Z,20.60
2018-07-17T05:17:32.881Z,20.40
2018-07-17T05:22:38.280Z,20.90
2018-07-17T05:27:50.055Z,21.30
2018-07-17T05:32:54.725Z,21.70
2018-07-17T05:37:59.646Z,22.60
2018-07-17T05:43:04.686Z,23.20
2018-07-17T05:48:09.380Z,24.30
2018-07-17T05:53:14.060Z,24.90
2018-07-17T05:58:21.012Z,25.00
2018-07-17T06:03:25.717Z,25.40
2018-07-17T06:08:30.376Z,25.50
2018-07-17T06:18:39.142Z,26.50
2018-07-17T06:23:43.822Z,27.10
2018-07-17T06:28:48.746Z,27.30
2018-07-17T06:33:53.307Z,27.70
2018-07-17T06:38:58.315Z,28.40
2018-07-17T06:44:03.514Z,28.50
2018-07-17T06:49:08.205Z,28.20
2018-07-17T06:54:13.844Z,28.50
2018-07-17T06:59:18.641Z,29.40
2018-07-17T07:04:23.201Z,29.50
2018-07-17T07:09:28.003Z,28.60
2018-07-17T07:14:32.579Z,28.50
2018-07-17T07:19:37.250Z,27.80
2018-07-17T07:24:41.933Z,27.70
2018-07-17T07:29:46.732Z,27.40
2018-07-17T07:34:51.532Z,27.60
2018-07-17T07:39:56.217Z,27.70
2018-07-17T07:45:01.019Z,28.00
2018-07-17T07:50:05.943Z,27.10
2018-07-17T07:55:10.750Z,26.80
2018-07-17T08:00:15.542Z,26.20
2018-07-17T08:05:20.585Z,26.80
2018-07-17T08:10:25.390Z,26.90
2018-07-17T08:15:30.073Z,26.50
2018-07-17T08:20:34.755Z,28.10
2018-07-17T08:25:39.557Z,29.20
2018-07-17T08:30:44.480Z,29.10
2018-07-17T08:35:49.444Z,30.70
2018-07-17T08:40:54.080Z,30.60
2018-07-17T08:45:58.885Z,29.40
2018-07-17T08:51:03.575Z,31.10
2018-07-17T08:56:08.369Z,31.70
2018-07-17T09:01:13.175Z,32.20
2018-07-17T09:06:17.849Z,32.60
2018-07-17T09:11:22.662Z,33.20
2018-07-17T09:16:27.937Z,32.10
2018-07-17T09:21:32.652Z,32.20
2018-07-17T09:26:37.418Z,34.40
2018-07-17T09:31:42.341Z,34.40
2018-07-17T09:36:47.875Z,32.10
2018-07-17T09:41:52.680Z,32.70
2018-07-17T09:46:57.233Z,33.40
2018-07-17T09:52:02.183Z,34.00
2018-07-17T09:57:06.973Z,33.70
2018-07-17T10:02:18.594Z,34.50
2018-07-17T10:07:23.997Z,35.00
2018-07-17T10:12:28.810Z,34.50
2018-07-17T10:17:33.599Z,34.90
2018-07-17T10:22:38.766Z,34.50
2018-07-17T10:27:43.574Z,35.80
2018-07-17T10:32:48.365Z,35.90
2018-07-17T10:37:53.050Z,35.30
2018-07-17T10:42:57.858Z,35.30
2018-07-17T10:48:02.686Z,34.60
2018-07-17T10:53:07.462Z,35.60
2018-07-17T10:58:12.377Z,36.00
2018-07-17T11:13:27.410Z,36.50
2018-07-17T11:18:32.433Z,37.20
2018-07-17T11:23:37.350Z,34.90
2018-07-17T11:28:42.296Z,37.30
2018-07-17T11:33:47.430Z,38.40
2018-07-17T11:38:52.236Z,38.90
2018-07-17T11:43:57.156Z,38.60
2018-07-17T11:49:02.082Z,37.80
2018-07-17T11:59:11.297Z,38.90
2018-07-17T12:04:16.971Z,38.60
2018-07-17T12:09:22.126Z,37.60
2018-07-17T12:14:27.291Z,37.30
2018-07-17T12:19:32.331Z,36.90
2018-07-17T12:24:37.307Z,37.30
2018-07-17T12:29:42.296Z,38.20
2018-07-17T12:34:47.388Z,37.10
2018-07-17T12:39:52.503Z,35.70
2018-07-17T12:45:00.556Z,37.70
2018-07-17T12:50:09.061Z,35.80
2018-07-17T12:55:14.949Z,34.10
2018-07-17T13:00:19.987Z,35.10
2018-07-17T13:05:24.849Z,36.90
2018-07-17T13:10:29.949Z,37.60
2018-07-17T13:15:34.754Z,35.60
2018-07-17T13:20:39.581Z,37.00
2018-07-17T13:25:45.556Z,38.50
2018-07-17T13:30:50.621Z,38.90
2018-07-17T13:35:55.523Z,39.90
2018-07-17T13:41:00.447Z,40.50
2018-07-17T13:51:09.935Z,39.00
2018-07-17T13:56:14.982Z,40.80
2018-07-17T14:01:20.135Z,39.70
2018-07-17T14:06:25.050Z,39.40
2018-07-17T14:11:29.745Z,39.30
2018-07-17T14:16:34.792Z,38.70
2018-07-17T14:21:39.843Z,36.90
2018-07-17T14:26:44.997Z,38.30
2018-07-17T14:31:50.987Z,37.90
2018-07-17T14:36:55.926Z,35.90
2018-07-17T14:42:00.713Z,34.60
2018-07-17T14:52:11.185Z,35.60
2018-07-17T14:57:17.331Z,36.30
2018-07-17T15:02:22.470Z,34.70
2018-07-17T15:07:29.279Z,34.20
2018-07-17T15:12:34.319Z,33.30
2018-07-17T15:17:45.362Z,34.20
2018-07-17T15:22:52.205Z,34.20
2018-07-17T15:28:00.078Z,34.10
2018-07-17T15:33:05.341Z,33.90
2018-07-17T15:38:11.769Z,34.00
2018-07-17T15:43:18.373Z,34.70
2018-07-17T15:48:24.131Z,34.50
2018-07-17T15:58:35.180Z,33.70
2018-07-17T16:03:40.227Z,33.50
2018-07-17T16:08:44.911Z,33.90
2018-07-17T16:13:49.886Z,34.20
2018-07-17T16:23:58.705Z,33.90
2018-07-17T16:29:03.771Z,33.80
2018-07-17T16:34:08.788Z,32.80
2018-07-17T16:39:13.350Z,33.40
2018-07-17T16:44:20.919Z,33.50
2018-07-17T16:49:25.846Z,34.30
2018-07-17T16:54:33.065Z,34.20
2018-07-17T16:59:39.283Z,34.10
2018-07-17T17:04:44.464Z,33.70
2018-07-17T17:09:49.605Z,32.70
2018-07-17T17:14:54.536Z,32.40
2018-07-17T17:19:59.604Z,31.90
2018-07-17T17:25:05.389Z,31.50
2018-07-17T17:30:10.973Z,31.40
2018-07-17T17:35:18.415Z,31.60
2018-07-17T17:40:23.339Z,31.50
2018-07-17T17:45:28.274Z,31.50
2018-07-17T17:50:34.380Z,31.10
2018-07-17T17:55:39.672Z,31.20
2018-07-17T18:00:46.411Z,30.60
2018-07-17T18:05:52.263Z,30.70
2018-07-17T18:10:57.071Z,30.40
2018-07-17T18:16:04.751Z,30.10
2018-07-17T18:26:14.598Z,29.80
2018-07-17T18:31:19.407Z,29.50
2018-07-17T18:36:24.441Z,29.30
2018-07-17T18:41:29.188Z,29.20
2018-07-17T18:46:33.919Z,29.00
2018-07-17T18:51:42.328Z,28.40
2018-07-17T18:56:47.250Z,27.90
2018-07-17T19:01:52.770Z,28.20
2018-07-17T19:06:57.569Z,27.90
2018-07-17T19:12:02.491Z,28.00
2018-07-17T19:17:07.299Z,27.80
2018-07-17T19:27:16.294Z,27.00
2018-07-17T19:32:21.475Z,26.90
2018-07-17T19:37:26.526Z,27.00
2018-07-17T19:42:32.025Z,26.70
2018-07-17T19:47:36.837Z,26.50
2018-07-17T19:52:41.656Z,26.60
2018-07-17T19:57:46.790Z,26.40
2018-07-17T20:02:51.593Z,26.20
2018-07-17T20:07:56.272Z,25.90
2018-07-17T20:13:01.196Z,26.00
2018-07-17T20:18:06.357Z,26.00
2018-07-17T20:23:11.403Z,25.90
2018-07-17T20:28:17.400Z,25.00
2018-07-17T20:33:22.222Z,25.40
2018-07-17T20:38:26.889Z,25.30
2018-07-17T20:43:32.652Z,25.40
2018-07-17T20:48:38.414Z,25.10
2018-07-17T20:53:43.098Z,25.20
2018-07-17T20:58:47.783Z,25.30
2018-07-17T21:03:52.693Z,25.40
2018-07-17T21:08:58.454Z,25.30
2018-07-17T21:14:08.303Z,25.00
2018-07-17T21:19:14.181Z,24.60
2018-07-17T21:24:18.982Z,24.70
2018-07-17T21:29:23.665Z,24.50
2018-07-17T21:34:42.398Z,24.30
2018-07-17T21:39:47.549Z,24.20
2018-07-17T21:55:00.757Z,23.90
2018-07-17T22:00:07.962Z,23.70
2018-07-17T22:05:12.758Z,23.60
2018-07-17T22:15:23.487Z,23.60
2018-07-17T22:20:29.572Z,23.70
2018-07-17T22:25:34.629Z,24.00
2018-07-17T22:30:39.550Z,23.70
2018-07-17T22:35:44.453Z,23.60
2018-07-17T22:40:49.256Z,23.50
2018-07-17T22:45:54.183Z,23.30
2018-07-17T22:50:59.229Z,23.10
2018-07-17T22:56:04.023Z,23.10
2018-07-17T23:01:09.180Z,23.00
2018-07-17T23:06:14.238Z,23.00
2018-07-17T23:11:19.987Z,23.00
2018-07-17T23:16:24.675Z,22.90
2018-07-17T23:26:43.038Z,23.00
2018-07-17T23:31:47.713Z,22.90
2018-07-17T23:36:55.843Z,23.10
2018-07-17T23:42:03.316Z,23.20
2018-07-17T23:47:08.119Z,23.10
2018-07-17T23:52:12.803Z,23.00
2018-07-17T23:57:17.846Z,22.60
